Startpagina
METAR-TAF:

METAR-TAF

Vliegvelden :

Florianópolis, Santa Catarina, Brazilië

Aeroporto Internacional Hercílio Luz

breedte: 27-40S, lengte: 048-33W, hoogte: 5 m

Actueel weer

Dit bericht is 42 minuten geleden gemaakt, om 06:00 UTC
Wind 7 kt uit het zuiden
Temperatuur 21°C
Vochtigheid 78%
Druk 1008 hPa
Zicht 10 km of meer
Gebroken wolken op 2000 ft
Gebroken wolken op 5000 ft

METAR: SBFL 190600Z 19007KT 9999 BKN020 BKN050 21/17 Q1008

Tijdstip: 04:42 (06:42 UTC)

Verwachting

Dit bericht is 3 uur en het 42 minuten geleden gemaakt, om 03:00 UTC
Verwachting geldig van 19 om 06 UTC tot 20 om 06 UTC
Wind 8 kt uit het zuidzuidwesten
Zicht 10 km of meer
Verspreide wolken op 2500 ft
Wijzigt naar
van 19 om 12 UTC tot 19 om 14 UTC
Verspreide wolken op 3500 ft
Wijzigt naar
van 20 om 00 UTC tot 20 om 02 UTC
Wind 6 kt uit het noorden
Verspreide wolken op 2500 ft

TAF: SBFL 190300Z 1906/2006 20008KT 9999 SCT025 TN18/1908Z TX22/1918Z BECMG 1912/1914 SCT035 BECMG 2000/2002 36006KT SCT025 RMK PER

Waarnemingen en weersverwachtingen van meer dan 4000 vliegvelden (METAR en TAF).

De beschikbare stations zijn de gele en rode punten op de kaart.

Ga met uw muis naar het station om de naam te zien.

Klik dan om waarnemingen en weersverwachtingen te zien.

kaart wijzigen: klik op de groene knoppen met een zwart kruis om in te zoomen, op de groene knop met een streepje om uit te zoomen of op de groene pijlen voor aangrenzende kaarten.


METAR-TAF: